Time;durP1;ratioP1;P1;durP2;ratioP2;P2;SDS_P1;SDS_P2;PMS_P1;PMS_P2;Temp;Humidity;BMP_temperature;BMP_pressure;BME280_temperature;BME280_humidity;BME280_pressure;Samples;Min_cycle;Max_cycle;Signal;HPM_P1;HPM_P2
2023/04/22 00:00:12;;;;;;;;;;;11.40;99.90;;;;;;5073745;28;19998;-62
2023/04/22 00:02:38;;;;;;;;;;;11.40;99.90;;;;;;5074338;28;19985;-62
2023/04/22 00:05:05;;;;;;;;;;;11.40;99.90;;;;;;5074151;28;19986;-62
2023/04/22 00:07:31;;;;;;;;;;;11.40;99.90;;;;;;5073833;28;20017;-62
2023/04/22 00:09:57;;;;;;;;;;;11.40;99.90;;;;;;5074051;28;20355;-62
2023/04/22 00:12:22;;;;;;;;;;;11.20;99.90;;;;;;5074337;28;20483;-62
2023/04/22 00:14:48;;;;;;;;;;;11.10;99.90;;;;;;5073914;28;20024;-62
2023/04/22 00:17:13;;;;;;;;;;;11.10;99.90;;;;;;5074003;28;20088;-62
2023/04/22 00:19:40;;;;;;;;;;;11.10;99.90;;;;;;5074217;28;19996;-62
2023/04/22 00:22:05;;;;;;;;;;;11.10;99.90;;;;;;5073665;28;19985;-62
2023/04/22 00:24:31;;;;;;;;;;;11.00;99.90;;;;;;5074027;28;19990;-62
2023/04/22 00:26:57;;;;;;;;;;;10.80;99.90;;;;;;5073839;28;20016;-61
2023/04/22 00:29:24;;;;;;;;;;;10.70;99.90;;;;;;5073728;28;20466;-61
2023/04/22 00:31:49;;;;;;;;;;;10.80;99.90;;;;;;5073845;28;19993;-61
2023/04/22 00:34:16;;;;;;;;;;;10.80;99.90;;;;;;5073838;28;19985;-62
2023/04/22 00:36:42;;;;;;;;;;;10.80;99.90;;;;;;5073503;28;20469;-62
2023/04/22 00:39:08;;;;;;;;;;;10.80;99.90;;;;;;5073633;28;20121;-62
2023/04/22 00:41:34;;;;;;;;;;;10.80;99.90;;;;;;5073772;28;20035;-62
2023/04/22 00:43:59;;;;;;;;;;;10.70;99.90;;;;;;5073745;28;19989;-61
2023/04/22 00:46:25;;;;;;;;;;;10.60;99.90;;;;;;5073453;28;20016;-61
2023/04/22 00:48:51;;;;;;;;;;;10.50;99.90;;;;;;5073776;28;19985;-62
2023/04/22 00:51:17;;;;;;;;;;;10.50;99.90;;;;;;5073364;28;19991;-62
2023/04/22 00:53:42;;;;;;;;;;;10.60;99.90;;;;;;5073513;28;19985;-61
2023/04/22 00:56:08;;;;;;;;;;;10.60;99.90;;;;;;5073507;28;20499;-62
2023/04/22 00:58:33;;;;;;;;;;;10.60;99.90;;;;;;5073644;28;20003;-61
2023/04/22 01:00:59;;;;;;;;;;;10.60;99.90;;;;;;5073720;28;20470;-62
2023/04/22 01:03:25;;;;;;;;;;;10.60;99.90;;;;;;5073810;28;19989;-62
2023/04/22 01:05:51;;;;;;;;;;;10.60;99.90;;;;;;5073376;28;19986;-61
2023/04/22 01:08:16;;;;;;;;;;;10.70;99.90;;;;;;5073355;28;20371;-62
2023/04/22 01:10:42;;;;;;;;;;;10.60;99.90;;;;;;5073429;28;19993;-62
2023/04/22 01:13:08;;;;;;;;;;;10.60;99.90;;;;;;5077248;28;20035;-61
2023/04/22 01:15:33;;;;;;;;;;;10.60;99.90;;;;;;5077433;28;20392;-62
2023/04/22 01:18:00;;;;;;;;;;;10.60;99.90;;;;;;5077284;28;19985;-61
2023/04/22 01:20:28;;;;;;;;;;;10.50;99.90;;;;;;5077184;28;20385;-62
2023/04/22 01:22:55;;;;;;;;;;;10.60;99.90;;;;;;5077440;28;19989;-62
2023/04/22 01:25:20;;;;;;;;;;;10.50;99.90;;;;;;5077168;28;19989;-61
2023/04/22 01:27:46;;;;;;;;;;;10.50;99.90;;;;;;5077433;28;20063;-61
2023/04/22 01:30:12;;;;;;;;;;;10.50;99.90;;;;;;5077183;28;20038;-62
2023/04/22 01:32:38;;;;;;;;;;;10.50;99.90;;;;;;5076985;28;20352;-61
2023/04/22 01:35:04;;;;;;;;;;;10.40;99.90;;;;;;5077019;28;20497;-62
2023/04/22 01:37:29;;;;;;;;;;;10.40;99.90;;;;;;5076864;28;19989;-62
2023/04/22 01:39:56;;;;;;;;;;;10.40;99.90;;;;;;5076890;28;19990;-61
2023/04/22 01:42:22;;;;;;;;;;;10.40;99.90;;;;;;5077027;28;19989;-61
2023/04/22 01:44:47;;;;;;;;;;;10.30;99.90;;;;;;5076921;28;19986;-62
2023/04/22 01:47:13;;;;;;;;;;;10.30;99.90;;;;;;5076953;28;20020;-62
2023/04/22 01:49:38;;;;;;;;;;;10.20;99.90;;;;;;5076822;28;20078;-61
2023/04/22 01:52:04;;;;;;;;;;;10.20;99.90;;;;;;5076721;28;20354;-62
2023/04/22 01:54:30;;;;;;;;;;;10.10;99.90;;;;;;5076739;28;19985;-62
2023/04/22 01:56:57;;;;;;;;;;;10.10;99.90;;;;;;5076500;28;19989;-62
2023/04/22 01:59:22;;;;;;;;;;;10.10;99.90;;;;;;5076587;28;19990;-64
2023/04/22 02:01:48;;;;;;;;;;;10.10;99.90;;;;;;5076545;28;19989;-63
2023/04/22 02:04:14;;;;;;;;;;;10.10;99.90;;;;;;5076538;28;19993;-62
2023/04/22 02:06:39;;;;;;;;;;;10.10;99.90;;;;;;5076623;28;20009;-61
2023/04/22 02:09:05;;;;;;;;;;;10.10;99.90;;;;;;5076341;28;20401;-62
2023/04/22 02:11:30;;;;;;;;;;;10.10;99.90;;;;;;5076313;28;20017;-61
2023/04/22 02:13:56;;;;;;;;;;;10.00;99.90;;;;;;5076272;28;19986;-61
2023/04/22 02:16:22;;;;;;;;;;;10.00;99.90;;;;;;5076360;28;20038;-62
2023/04/22 02:18:47;;;;;;;;;;;10.00;99.90;;;;;;5075977;28;20357;-61
2023/04/22 02:21:13;;;;;;;;;;;10.00;99.90;;;;;;5076208;28;20080;-61
2023/04/22 02:23:39;;;;;;;;;;;10.00;99.90;;;;;;5075531;28;19994;-62
2023/04/22 02:26:04;;;;;;;;;;;10.00;99.90;;;;;;5076055;28;20461;-62
2023/04/22 02:28:30;;;;;;;;;;;9.90;99.90;;;;;;5076013;28;20406;-62
2023/04/22 02:30:56;;;;;;;;;;;9.90;99.90;;;;;;5075977;28;20034;-61
2023/04/22 02:33:22;;;;;;;;;;;9.90;99.90;;;;;;5075796;28;19993;-62
2023/04/22 02:35:47;;;;;;;;;;;9.90;99.90;;;;;;5076156;28;20031;-62
2023/04/22 02:38:13;;;;;;;;;;;9.80;99.90;;;;;;5075666;28;20028;-61
2023/04/22 02:40:38;;;;;;;;;;;9.70;99.90;;;;;;5075917;28;20025;-61
2023/04/22 02:43:04;;;;;;;;;;;9.70;99.90;;;;;;5075727;28;19986;-62
2023/04/22 02:45:29;;;;;;;;;;;9.60;99.90;;;;;;5075875;28;19985;-61
2023/04/22 02:47:55;;;;;;;;;;;9.70;99.90;;;;;;5075413;28;20008;-62
2023/04/22 02:50:21;;;;;;;;;;;9.70;99.90;;;;;;5075649;28;20021;-61
2023/04/22 02:52:46;;;;;;;;;;;9.70;99.90;;;;;;5075524;28;20407;-62
2023/04/22 02:55:12;;;;;;;;;;;9.60;99.90;;;;;;5075591;28;19989;-61
2023/04/22 02:57:37;;;;;;;;;;;9.60;99.90;;;;;;5075778;28;19989;-62
2023/04/22 03:00:03;;;;;;;;;;;9.60;99.90;;;;;;5075394;28;20034;-61
2023/04/22 03:02:29;;;;;;;;;;;9.60;99.90;;;;;;5075456;28;20074;-61
2023/04/22 03:04:54;;;;;;;;;;;9.60;99.90;;;;;;5075357;28;19985;-61
2023/04/22 03:07:20;;;;;;;;;;;9.60;99.90;;;;;;5075149;28;20009;-62
2023/04/22 03:09:45;;;;;;;;;;;9.60;99.90;;;;;;5075400;28;19985;-61
2023/04/22 03:12:11;;;;;;;;;;;9.70;99.90;;;;;;5075240;28;19995;-61
2023/04/22 03:14:36;;;;;;;;;;;9.60;99.90;;;;;;5075336;28;20340;-61
2023/04/22 03:17:02;;;;;;;;;;;9.60;99.90;;;;;;5074966;28;20336;-61
2023/04/22 03:19:27;;;;;;;;;;;9.50;99.90;;;;;;5075101;28;20008;-61
2023/04/22 03:21:55;;;;;;;;;;;9.50;99.90;;;;;;5075021;28;19985;-61
2023/04/22 03:24:20;;;;;;;;;;;9.50;99.90;;;;;;5074966;28;20458;-61
2023/04/22 03:26:46;;;;;;;;;;;9.50;99.90;;;;;;5074927;28;20009;-61
2023/04/22 03:29:11;;;;;;;;;;;9.40;99.90;;;;;;5074895;28;20329;-61
2023/04/22 03:31:37;;;;;;;;;;;9.30;99.90;;;;;;5074626;28;20031;-61
2023/04/22 03:34:03;;;;;;;;;;;9.30;99.90;;;;;;5074746;28;20354;-61
2023/04/22 03:36:30;;;;;;;;;;;9.40;99.90;;;;;;5074748;28;20001;-62
2023/04/22 03:38:55;;;;;;;;;;;9.40;99.90;;;;;;5074491;28;20436;-62
2023/04/22 03:41:22;;;;;;;;;;;9.30;99.90;;;;;;5074787;28;20086;-62
2023/04/22 03:43:47;;;;;;;;;;;9.30;99.90;;;;;;5074732;28;19989;-62
2023/04/22 03:46:13;;;;;;;;;;;9.30;99.90;;;;;;5072937;28;19997;-61
2023/04/22 03:48:38;;;;;;;;;;;9.30;99.90;;;;;;5075138;28;19989;-61
2023/04/22 03:51:04;;;;;;;;;;;9.30;99.90;;;;;;5074594;28;20039;-61
2023/04/22 03:53:30;;;;;;;;;;;9.20;99.90;;;;;;5074314;28;20020;-61
2023/04/22 03:55:55;;;;;;;;;;;9.20;99.90;;;;;;5074297;28;20043;-61
2023/04/22 03:58:21;;;;;;;;;;;9.20;99.90;;;;;;5074428;28;19985;-61
2023/04/22 04:00:47;;;;;;;;;;;9.30;99.90;;;;;;5074093;28;19985;-61
2023/04/22 04:03:12;;;;;;;;;;;9.30;99.90;;;;;;5074165;28;20088;-61
2023/04/22 04:05:38;;;;;;;;;;;9.30;99.90;;;;;;5074300;28;19985;-61
2023/04/22 04:08:03;;;;;;;;;;;9.30;99.90;;;;;;5073995;28;20056;-61
2023/04/22 04:10:29;;;;;;;;;;;9.30;99.90;;;;;;5074343;28;19989;-63
2023/04/22 04:12:54;;;;;;;;;;;9.30;99.90;;;;;;5074311;28;19989;-61
2023/04/22 04:15:20;;;;;;;;;;;9.30;99.90;;;;;;5073810;28;20431;-61
2023/04/22 04:17:46;;;;;;;;;;;9.30;99.90;;;;;;5073947;28;19992;-61
2023/04/22 04:20:12;;;;;;;;;;;9.10;99.90;;;;;;5074274;28;20143;-62
2023/04/22 04:22:38;;;;;;;;;;;9.10;99.90;;;;;;5074246;28;20091;-61
2023/04/22 04:25:04;;;;;;;;;;;9.10;99.90;;;;;;5073921;28;19986;-61
2023/04/22 04:27:29;;;;;;;;;;;9.20;99.90;;;;;;5073710;28;20050;-61
2023/04/22 04:29:55;;;;;;;;;;;9.30;99.90;;;;;;5073683;28;20466;-61
2023/04/22 04:32:21;;;;;;;;;;;9.20;99.90;;;;;;5073848;28;19989;-61
2023/04/22 04:34:46;;;;;;;;;;;9.00;99.90;;;;;;5073842;28;20017;-61
2023/04/22 04:37:12;;;;;;;;;;;9.00;99.90;;;;;;5073761;28;19990;-61
2023/04/22 04:39:37;;;;;;;;;;;9.20;99.90;;;;;;5073592;28;20071;-62
2023/04/22 04:42:03;;;;;;;;;;;9.30;99.90;;;;;;5073637;28;20033;-61
2023/04/22 04:44:33;;;;;;;;;;;9.30;99.90;;;;;;5073435;28;20444;-61
2023/04/22 04:46:58;;;;;;;;;;;9.40;99.90;;;;;;5073082;28;20013;-62
2023/04/22 04:49:24;;;;;;;;;;;9.50;99.90;;;;;;5073891;28;19989;-61
2023/04/22 04:51:49;;;;;;;;;;;9.60;99.90;;;;;;5073733;28;19986;-61
2023/04/22 04:54:15;;;;;;;;;;;9.60;99.90;;;;;;5073546;28;20386;-61
2023/04/22 04:56:41;;;;;;;;;;;9.70;99.90;;;;;;5073308;28;19986;-62
2023/04/22 04:59:06;;;;;;;;;;;9.70;99.90;;;;;;5073824;28;20038;-61
2023/04/22 05:01:32;;;;;;;;;;;9.70;99.90;;;;;;5073531;28;20350;-62
2023/04/22 05:03:57;;;;;;;;;;;9.80;99.90;;;;;;5073572;28;20366;-61
2023/04/22 05:06:23;;;;;;;;;;;9.80;99.90;;;;;;5073364;28;20350;-61
2023/04/22 05:08:48;;;;;;;;;;;9.80;99.90;;;;;;5073494;28;19986;-61
2023/04/22 05:11:14;;;;;;;;;;;9.90;99.90;;;;;;5073561;28;20000;-61
2023/04/22 05:13:39;;;;;;;;;;;9.90;99.90;;;;;;5073406;28;19992;-62
2023/04/22 05:16:05;;;;;;;;;;;9.90;99.90;;;;;;5073401;28;19985;-61
2023/04/22 05:18:30;;;;;;;;;;;10.00;99.90;;;;;;5073613;28;20068;-61
2023/04/22 05:20:58;;;;;;;;;;;10.00;99.90;;;;;;5073275;28;20436;-61
2023/04/22 05:23:23;;;;;;;;;;;10.00;99.90;;;;;;5073315;28;19985;-61
2023/04/22 05:25:49;;;;;;;;;;;10.00;99.90;;;;;;5073083;28;19989;-61
2023/04/22 05:28:15;;;;;;;;;;;10.00;99.90;;;;;;5073097;28;20010;-61
2023/04/22 05:30:41;;;;;;;;;;;10.10;99.90;;;;;;5073309;28;19985;-62
2023/04/22 05:33:07;;;;;;;;;;;10.10;99.90;;;;;;5073224;28;19985;-61
2023/04/22 05:35:33;;;;;;;;;;;10.10;99.90;;;;;;5073161;28;20475;-61
2023/04/22 05:37:59;;;;;;;;;;;10.20;99.90;;;;;;5072897;28;20107;-61
2023/04/22 05:40:25;;;;;;;;;;;10.30;99.90;;;;;;5072973;28;19985;-61
2023/04/22 05:42:50;;;;;;;;;;;10.40;99.90;;;;;;5073119;28;20501;-62
2023/04/22 05:45:16;;;;;;;;;;;10.50;99.90;;;;;;5073000;28;20463;-61
2023/04/22 05:47:42;;;;;;;;;;;10.50;99.90;;;;;;5073023;28;20371;-61
2023/04/22 05:50:08;;;;;;;;;;;10.60;99.90;;;;;;5073162;28;20356;-62
2023/04/22 05:52:33;;;;;;;;;;;10.70;99.90;;;;;;5073007;28;19985;-61
2023/04/22 05:54:59;;;;;;;;;;;10.70;99.90;;;;;;5072866;28;19993;-62
2023/04/22 05:57:24;;;;;;;;;;;10.90;99.90;;;;;;5073092;28;20515;-61
2023/04/22 05:59:50;;;;;;;;;;;11.00;99.90;;;;;;5075845;28;20489;-61
2023/04/22 06:02:16;;;;;;;;;;;11.20;99.90;;;;;;5076663;28;19992;-61
2023/04/22 06:04:42;;;;;;;;;;;11.30;99.90;;;;;;5076458;28;20363;-61
2023/04/22 06:07:07;;;;;;;;;;;11.50;99.90;;;;;;5076675;28;20023;-61
2023/04/22 06:09:33;;;;;;;;;;;11.70;99.90;;;;;;5076189;28;20029;-61
2023/04/22 06:11:58;;;;;;;;;;;11.80;99.90;;;;;;5076375;28;20337;-61
2023/04/22 06:14:24;;;;;;;;;;;11.90;99.90;;;;;;5076404;28;19985;-62
2023/04/22 06:16:51;;;;;;;;;;;12.00;99.90;;;;;;5076246;28;20016;-62
2023/04/22 06:19:17;;;;;;;;;;;12.20;99.90;;;;;;5076541;28;19990;-62
2023/04/22 06:21:42;;;;;;;;;;;12.30;99.90;;;;;;5076195;28;19994;-61
2023/04/22 06:24:09;;;;;;;;;;;12.50;99.90;;;;;;5075956;28;20028;-61
2023/04/22 06:26:35;;;;;;;;;;;12.80;99.90;;;;;;5076158;28;20013;-62
2023/04/22 06:29:01;;;;;;;;;;;13.70;99.90;;;;;;5076170;28;19999;-62
2023/04/22 06:31:27;;;;;;;;;;;16.30;99.90;;;;;;5076248;28;20000;-61
2023/04/22 06:33:52;;;;;;;;;;;19.00;77.30;;;;;;5075925;28;19990;-61
2023/04/22 06:36:18;;;;;;;;;;;21.10;64.20;;;;;;5076393;28;20008;-61
2023/04/22 06:38:44;;;;;;;;;;;22.90;56.60;;;;;;5075503;28;20032;-61
2023/04/22 06:41:09;;;;;;;;;;;24.10;52.40;;;;;;5075789;28;20383;-62
2023/04/22 06:43:35;;;;;;;;;;;24.90;48.60;;;;;;5075823;28;20400;-62
2023/04/22 06:46:00;;;;;;;;;;;25.80;47.80;;;;;;5075810;28;19989;-62
2023/04/22 06:48:26;;;;;;;;;;;26.60;45.40;;;;;;5075533;28;20521;-61
2023/04/22 06:50:52;;;;;;;;;;;26.80;41.80;;;;;;5075652;28;19994;-62
2023/04/22 06:53:17;;;;;;;;;;;26.70;43.80;;;;;;5075593;28;19986;-62
2023/04/22 06:55:43;;;;;;;;;;;27.20;43.10;;;;;;5075497;28;19989;-62
2023/04/22 06:58:08;;;;;;;;;;;27.20;43.40;;;;;;5075660;28;19992;-62
2023/04/22 07:00:34;;;;;;;;;;;26.70;42.50;;;;;;5075554;28;20084;-62
2023/04/22 07:02:59;;;;;;;;;;;25.50;42.00;;;;;;5075404;28;19985;-62
2023/04/22 07:05:25;;;;;;;;;;;24.90;43.80;;;;;;5075401;28;19985;-62
2023/04/22 07:07:51;;;;;;;;;;;24.50;44.70;;;;;;5075129;28;20009;-62
2023/04/22 07:10:16;;;;;;;;;;;25.40;44.90;;;;;;5075240;28;20359;-62
2023/04/22 07:12:42;;;;;;;;;;;24.70;42.40;;;;;;5075158;28;20012;-62
2023/04/22 07:15:07;;;;;;;;;;;23.70;44.70;;;;;;5075400;28;19992;-62
2023/04/22 07:17:33;;;;;;;;;;;23.30;45.50;;;;;;5075086;28;19997;-62
2023/04/22 07:19:59;;;;;;;;;;;22.70;47.20;;;;;;5075058;28;20080;-62
2023/04/22 07:22:24;;;;;;;;;;;22.00;47.30;;;;;;5074881;28;19992;-62
2023/04/22 07:24:50;;;;;;;;;;;21.20;47.70;;;;;;5075056;28;20073;-62
2023/04/22 07:27:16;;;;;;;;;;;20.60;50.90;;;;;;5074811;28;20378;-62
2023/04/22 07:29:41;;;;;;;;;;;20.00;50.70;;;;;;5074968;28;20340;-62
2023/04/22 07:32:07;;;;;;;;;;;19.90;52.30;;;;;;5074936;28;20016;-62
2023/04/22 07:34:33;;;;;;;;;;;20.40;51.70;;;;;;5074918;28;19994;-62
2023/04/22 07:36:58;;;;;;;;;;;20.50;50.70;;;;;;5074483;28;20402;-62
2023/04/22 07:39:25;;;;;;;;;;;20.60;50.10;;;;;;5074625;28;20395;-62
2023/04/22 07:41:52;;;;;;;;;;;21.50;49.90;;;;;;5074717;28;19985;-62
2023/04/22 07:44:20;;;;;;;;;;;23.40;47.00;;;;;;5074598;28;20060;-62
2023/04/22 07:46:49;;;;;;;;;;;24.90;47.00;;;;;;5074471;28;20471;-62
2023/04/22 07:49:16;;;;;;;;;;;26.10;45.60;;;;;;5074505;28;20455;-62
2023/04/22 07:51:42;;;;;;;;;;;27.50;43.80;;;;;;5074287;28;20436;-62
2023/04/22 07:54:08;;;;;;;;;;;28.40;41.50;;;;;;5074750;28;19989;-62
2023/04/22 07:56:33;;;;;;;;;;;29.50;39.30;;;;;;5074359;28;19997;-62
2023/04/22 07:58:59;;;;;;;;;;;30.70;37.80;;;;;;5074175;28;20155;-62
2023/04/22 08:01:25;;;;;;;;;;;31.50;36.60;;;;;;5074262;28;20021;-62
2023/04/22 08:03:50;;;;;;;;;;;31.80;34.70;;;;;;5074312;28;19986;-62
2023/04/22 08:06:16;;;;;;;;;;;31.50;36.60;;;;;;5073794;28;19985;-62
2023/04/22 08:08:41;;;;;;;;;;;31.40;36.80;;;;;;5074252;28;19990;-62
2023/04/22 08:11:07;;;;;;;;;;;31.70;35.50;;;;;;5074109;28;19985;-62
2023/04/22 08:13:32;;;;;;;;;;;31.60;35.00;;;;;;5074038;28;20007;-62
2023/04/22 08:16:06;;;;;;;;;;;31.70;35.80;;;;;;5074188;28;19986;-62
2023/04/22 08:18:31;;;;;;;;;;;31.60;35.70;;;;;;5074292;28;20070;-62
2023/04/22 08:20:57;;;;;;;;;;;31.70;35.20;;;;;;5072984;28;19985;-62
2023/04/22 08:23:23;;;;;;;;;;;32.00;35.10;;;;;;5074230;28;19990;-62
2023/04/22 08:25:49;;;;;;;;;;;31.90;34.50;;;;;;5073879;28;20035;-62
2023/04/22 08:28:15;;;;;;;;;;;31.60;34.90;;;;;;5073732;28;20009;-62
2023/04/22 08:30:40;;;;;;;;;;;31.30;35.50;;;;;;5074123;28;20007;-62
2023/04/22 08:33:06;;;;;;;;;;;31.40;34.00;;;;;;5073916;28;19985;-62
2023/04/22 08:35:33;;;;;;;;;;;31.30;36.10;;;;;;5073570;28;20054;-62
2023/04/22 08:37:59;;;;;;;;;;;30.90;35.10;;;;;;5073560;28;20074;-62
2023/04/22 08:40:25;;;;;;;;;;;30.70;36.60;;;;;;5073746;28;19985;-62
2023/04/22 08:42:51;;;;;;;;;;;30.70;36.60;;;;;;5073685;28;20021;-62
2023/04/22 08:45:17;;;;;;;;;;;30.60;37.60;;;;;;5073653;28;19996;-62
2023/04/22 08:47:43;;;;;;;;;;;30.50;38.80;;;;;;5073589;28;20009;-62
2023/04/22 08:50:08;;;;;;;;;;;30.00;39.80;;;;;;5073548;28;20083;-62
2023/04/22 08:52:34;;;;;;;;;;;29.70;39.00;;;;;;5073510;28;20035;-62
2023/04/22 08:54:59;;;;;;;;;;;29.90;38.50;;;;;;5073842;28;19992;-62
2023/04/22 08:57:25;;;;;;;;;;;30.00;35.40;;;;;;5073566;28;20324;-62
2023/04/22 08:59:51;;;;;;;;;;;29.80;37.00;;;;;;5073462;28;19993;-62
2023/04/22 09:02:20;;;;;;;;;;;30.10;35.00;;;;;;5073579;28;19990;-62
2023/04/22 09:04:47;;;;;;;;;;;29.60;38.20;;;;;;5073602;28;20075;-62
2023/04/22 09:07:23;;;;;;;;;;;29.60;38.40;;;;;;5073356;28;20013;-62
2023/04/22 09:09:49;;;;;;;;;;;29.80;36.90;;;;;;5073516;28;19992;-62
2023/04/22 09:12:17;;;;;;;;;;;29.50;36.20;;;;;;5073409;28;19989;-63
2023/04/22 09:14:43;;;;;;;;;;;29.60;36.50;;;;;;5073327;28;19986;-62
2023/04/22 09:17:09;;;;;;;;;;;29.90;35.20;;;;;;5073598;28;20035;-62
2023/04/22 09:19:35;;;;;;;;;;;29.50;38.60;;;;;;5073195;28;19992;-62
2023/04/22 09:22:00;;;;;;;;;;;29.40;40.60;;;;;;5073300;28;20462;-62
2023/04/22 09:24:26;;;;;;;;;;;29.00;36.00;;;;;;5073299;28;19985;-63
2023/04/22 09:26:53;;;;;;;;;;;29.00;37.60;;;;;;5073304;28;20350;-62
2023/04/22 09:29:19;;;;;;;;;;;29.20;38.80;;;;;;5073487;28;20348;-62
2023/04/22 09:31:51;;;;;;;;;;;29.60;35.00;;;;;;5073311;28;19985;-62
2023/04/22 09:34:16;;;;;;;;;;;29.50;37.30;;;;;;5077005;28;20025;-62
2023/04/22 09:36:42;;;;;;;;;;;29.50;37.30;;;;;;5076857;28;20091;-62
2023/04/22 09:39:08;;;;;;;;;;;29.50;38.30;;;;;;5076905;28;20162;-62
2023/04/22 09:41:38;;;;;;;;;;;29.50;37.90;;;;;;5077283;28;19994;-62
2023/04/22 09:44:07;;;;;;;;;;;29.90;38.70;;;;;;5077105;28;19989;-62
2023/04/22 09:46:33;;;;;;;;;;;29.80;36.30;;;;;;5077034;28;19990;-62
2023/04/22 09:48:59;;;;;;;;;;;28.80;33.40;;;;;;5076677;28;20494;-62
2023/04/22 09:51:26;;;;;;;;;;;28.30;34.80;;;;;;5076643;28;19985;-62
2023/04/22 09:53:59;;;;;;;;;;;29.00;35.20;;;;;;5076836;28;20000;-62
2023/04/22 09:56:43;;;;;;;;;;;29.90;38.00;;;;;;5076659;28;20089;-62
2023/04/22 09:59:09;;;;;;;;;;;29.70;34.80;;;;;;5076727;28;19985;-62
2023/04/22 10:01:36;;;;;;;;;;;29.00;34.50;;;;;;5076544;28;20035;-62
2023/04/22 10:04:01;;;;;;;;;;;28.00;33.50;;;;;;5076318;28;19996;-62
2023/04/22 10:06:28;;;;;;;;;;;27.40;34.10;;;;;;5076531;28;19986;-62
2023/04/22 10:08:54;;;;;;;;;;;27.20;33.80;;;;;;5076450;28;20436;-62
2023/04/22 10:11:20;;;;;;;;;;;27.40;33.70;;;;;;5076470;28;19986;-62
2023/04/22 10:13:45;;;;;;;;;;;27.50;35.70;;;;;;5076449;28;19990;-62
2023/04/22 10:16:11;;;;;;;;;;;27.70;39.90;;;;;;5076626;28;19989;-62
2023/04/22 10:18:38;;;;;;;;;;;28.00;38.20;;;;;;5076394;28;19989;-62
2023/04/22 10:21:04;;;;;;;;;;;28.20;37.90;;;;;;5076447;28;19993;-62
2023/04/22 10:23:31;;;;;;;;;;;27.80;37.40;;;;;;5076251;28;19992;-62
2023/04/22 10:25:56;;;;;;;;;;;27.40;36.70;;;;;;5076169;28;20355;-62
2023/04/22 10:28:23;;;;;;;;;;;27.10;35.20;;;;;;5076192;28;20020;-62
2023/04/22 10:30:49;;;;;;;;;;;26.80;36.40;;;;;;5076065;28;20464;-62
2023/04/22 10:33:22;;;;;;;;;;;26.50;37.70;;;;;;5076174;28;20028;-63
2023/04/22 10:36:09;;;;;;;;;;;26.30;39.20;;;;;;5076294;28;20394;-63
2023/04/22 10:38:41;;;;;;;;;;;26.00;35.60;;;;;;5075834;28;20031;-63
2023/04/22 10:41:12;;;;;;;;;;;25.40;34.50;;;;;;5076143;28;19994;-63
2023/04/22 10:43:40;;;;;;;;;;;25.00;36.80;;;;;;5075540;28;20394;-63
2023/04/22 10:46:06;;;;;;;;;;;25.00;34.40;;;;;;5075183;28;20091;-63
2023/04/22 10:48:47;;;;;;;;;;;24.90;36.60;;;;;;5075784;28;20108;-63
2023/04/22 10:51:32;;;;;;;;;;;24.60;34.40;;;;;;5075963;28;20076;-63
2023/04/22 10:54:00;;;;;;;;;;;24.10;37.50;;;;;;5075656;28;20086;-63
2023/04/22 10:56:26;;;;;;;;;;;23.60;36.80;;;;;;5075525;28;19989;-63
2023/04/22 10:58:51;;;;;;;;;;;23.70;37.50;;;;;;5075457;28;20080;-63
2023/04/22 11:01:17;;;;;;;;;;;24.00;36.60;;;;;;5075536;28;19986;-63
2023/04/22 11:03:43;;;;;;;;;;;24.20;37.90;;;;;;5075728;28;19996;-63
2023/04/22 11:06:12;;;;;;;;;;;24.20;39.40;;;;;;5075385;28;20012;-63
2023/04/22 11:08:42;;;;;;;;;;;24.40;40.50;;;;;;5075973;28;20009;-63
2023/04/22 11:11:10;;;;;;;;;;;24.40;39.60;;;;;;5075261;28;20037;-63
2023/04/22 11:13:35;;;;;;;;;;;24.10;36.60;;;;;;5075172;28;19986;-63
2023/04/22 11:16:01;;;;;;;;;;;23.80;37.30;;;;;;5074902;28;20051;-63
2023/04/22 11:18:27;;;;;;;;;;;23.90;36.70;;;;;;5075389;28;19997;-63
2023/04/22 11:20:52;;;;;;;;;;;24.10;38.00;;;;;;5074959;28;20458;-63
2023/04/22 11:23:22;;;;;;;;;;;24.40;37.30;;;;;;5075344;28;20012;-63
2023/04/22 11:25:53;;;;;;;;;;;24.40;36.60;;;;;;5075061;28;19985;-63
2023/04/22 11:28:19;;;;;;;;;;;24.40;37.40;;;;;;5074837;28;20456;-63
2023/04/22 11:30:44;;;;;;;;;;;24.40;36.80;;;;;;5074657;28;19992;-63
2023/04/22 11:33:13;;;;;;;;;;;24.50;39.00;;;;;;5074903;28;19985;-63
2023/04/22 11:35:38;;;;;;;;;;;24.50;38.50;;;;;;5074860;28;20548;-62
2023/04/22 11:38:04;;;;;;;;;;;24.60;36.90;;;;;;5074826;28;20120;-62
2023/04/22 11:40:32;;;;;;;;;;;24.60;35.10;;;;;;5074680;28;20042;-62
2023/04/22 11:42:59;;;;;;;;;;;24.50;33.90;;;;;;5074569;28;19985;-62
2023/04/22 11:45:25;;;;;;;;;;;24.40;35.20;;;;;;5074505;28;19985;-62
2023/04/22 11:47:51;;;;;;;;;;;24.50;35.80;;;;;;5074495;28;20009;-62
2023/04/22 11:50:19;;;;;;;;;;;24.70;34.00;;;;;;5074423;28;19985;-62
2023/04/22 11:52:45;;;;;;;;;;;25.00;35.30;;;;;;5074601;28;19991;-62
2023/04/22 11:55:11;;;;;;;;;;;25.20;34.40;;;;;;5074219;28;19985;-62
2023/04/22 11:57:37;;;;;;;;;;;25.40;32.30;;;;;;5073756;28;20072;-62
2023/04/22 12:00:02;;;;;;;;;;;25.40;31.90;;;;;;5074009;28;20430;-62
2023/04/22 12:02:28;;;;;;;;;;;25.40;35.10;;;;;;5074218;28;19994;-62
2023/04/22 12:04:56;;;;;;;;;;;25.30;32.30;;;;;;5074249;28;19985;-62
2023/04/22 12:07:22;;;;;;;;;;;24.80;32.70;;;;;;5074041;28;20383;-62
2023/04/22 12:09:52;;;;;;;;;;;24.60;33.90;;;;;;5074422;28;19996;-62
2023/04/22 12:12:17;;;;;;;;;;;24.60;32.60;;;;;;5074191;28;19985;-62
2023/04/22 12:14:45;;;;;;;;;;;24.40;32.50;;;;;;5073760;28;19986;-62
2023/04/22 12:17:10;;;;;;;;;;;24.40;34.60;;;;;;5074021;28;19989;-62
2023/04/22 12:19:36;;;;;;;;;;;23.90;32.30;;;;;;5073910;28;19997;-62
2023/04/22 12:22:02;;;;;;;;;;;23.80;33.40;;;;;;5074142;28;19993;-62
2023/04/22 12:24:28;;;;;;;;;;;24.10;33.20;;;;;;5073922;28;20013;-62
2023/04/22 12:26:53;;;;;;;;;;;24.60;33.40;;;;;;5073795;28;20020;-62
2023/04/22 12:29:26;;;;;;;;;;;25.20;33.70;;;;;;5073781;28;20023;-62
2023/04/22 12:31:51;;;;;;;;;;;25.20;32.10;;;;;;5074173;28;19997;-62
2023/04/22 12:34:17;;;;;;;;;;;24.80;32.40;;;;;;5073891;28;19985;-62
2023/04/22 12:36:42;;;;;;;;;;;24.90;32.60;;;;;;5073585;28;20001;-62
2023/04/22 12:39:09;;;;;;;;;;;25.20;34.20;;;;;;5073662;28;20021;-62
2023/04/22 12:41:35;;;;;;;;;;;25.50;37.40;;;;;;5073910;28;20038;-62
2023/04/22 12:44:00;;;;;;;;;;;25.90;36.20;;;;;;5073512;28;20379;-62
2023/04/22 12:46:26;;;;;;;;;;;26.40;33.20;;;;;;5073711;28;19985;-62
2023/04/22 12:48:51;;;;;;;;;;;27.20;33.00;;;;;;5073789;28;19997;-62
2023/04/22 12:51:17;;;;;;;;;;;27.60;30.60;;;;;;5073634;28;19985;-62
2023/04/22 12:53:42;;;;;;;;;;;27.60;33.00;;;;;;5074159;28;19989;-61
2023/04/22 12:56:08;;;;;;;;;;;27.50;32.60;;;;;;5073559;28;20423;-62
2023/04/22 12:58:33;;;;;;;;;;;27.00;30.40;;;;;;5073409;28;20055;-62
2023/04/22 13:00:59;;;;;;;;;;;26.70;33.00;;;;;;5073439;28;20459;-62
2023/04/22 13:03:25;;;;;;;;;;;27.10;34.60;;;;;;5073531;28;20386;-62
2023/04/22 13:05:51;;;;;;;;;;;27.60;33.40;;;;;;5073507;28;19986;-61
2023/04/22 13:08:16;;;;;;;;;;;27.70;34.10;;;;;;5075753;28;20009;-61
2023/04/22 13:10:42;;;;;;;;;;;28.00;33.90;;;;;;5077531;28;20371;-61
2023/04/22 13:13:08;;;;;;;;;;;28.20;36.00;;;;;;5077358;28;19985;-61
2023/04/22 13:15:35;;;;;;;;;;;28.30;33.80;;;;;;5076149;28;19989;-61
2023/04/22 13:18:00;;;;;;;;;;;28.70;35.30;;;;;;5077510;28;20011;-61
2023/04/22 13:20:26;;;;;;;;;;;28.90;33.80;;;;;;5077315;28;20201;-61
2023/04/22 13:22:52;;;;;;;;;;;28.40;30.60;;;;;;5077666;28;19994;-61
2023/04/22 13:25:17;;;;;;;;;;;28.20;32.00;;;;;;5077377;28;20452;-61
2023/04/22 13:27:43;;;;;;;;;;;28.10;33.60;;;;;;5077324;28;20009;-62
2023/04/22 13:30:08;;;;;;;;;;;28.00;31.50;;;;;;5077326;28;20080;-62
2023/04/22 13:32:34;;;;;;;;;;;28.00;30.80;;;;;;5077111;28;20031;-62
2023/04/22 13:35:00;;;;;;;;;;;27.70;30.00;;;;;;5077079;28;20023;-61
2023/04/22 13:37:25;;;;;;;;;;;27.40;30.70;;;;;;5076972;28;20443;-61
2023/04/22 13:39:51;;;;;;;;;;;27.10;32.50;;;;;;5076781;28;19989;-61
2023/04/22 13:42:16;;;;;;;;;;;27.00;32.30;;;;;;5077078;28;19986;-61
2023/04/22 13:44:42;;;;;;;;;;;27.00;30.50;;;;;;5076946;28;19989;-61
2023/04/22 13:47:08;;;;;;;;;;;27.30;33.20;;;;;;5076691;28;20460;-61
2023/04/22 13:49:33;;;;;;;;;;;27.80;31.50;;;;;;5077451;28;19989;-61
2023/04/22 13:51:59;;;;;;;;;;;28.30;31.10;;;;;;5075593;28;19993;-61
2023/04/22 13:54:26;;;;;;;;;;;27.90;30.50;;;;;;5076541;28;20012;-61
2023/04/22 13:56:52;;;;;;;;;;;27.90;32.00;;;;;;5076902;28;20024;-61
2023/04/22 13:59:17;;;;;;;;;;;28.00;31.80;;;;;;5076722;28;20020;-62
2023/04/22 14:01:43;;;;;;;;;;;28.10;32.30;;;;;;5076617;28;19985;-61
2023/04/22 14:04:08;;;;;;;;;;;27.90;29.30;;;;;;5076477;28;19990;-61
2023/04/22 14:06:34;;;;;;;;;;;27.80;29.90;;;;;;5076563;28;20024;-61
2023/04/22 14:09:00;;;;;;;;;;;27.80;29.90;;;;;;5076559;28;19984;-61
2023/04/22 14:11:25;;;;;;;;;;;28.10;31.50;;;;;;5076495;28;19989;-62